Time;durP1;ratioP1;P1;durP2;ratioP2;P2;SDS_P1;SDS_P2;PMS_P1;PMS_P2;Temp;Humidity;BMP_temperature;BMP_pressure;BME280_temperature;BME280_humidity;BME280_pressure;Samples;Min_cycle;Max_cycle;Signal;HPM_P1;HPM_P2
2023/06/10 00:02:16;;;;;;;9.15;6.82;;;;;;;18.85;49.26;95291.34;6129043;23;20163;-82
2023/06/10 00:04:41;;;;;;;7.80;7.10;;;;;;;18.76;49.48;95291.75;6131586;23;20224;-82
2023/06/10 00:07:08;;;;;;;8.85;7.90;;;;;;;18.76;49.40;95289.13;6131478;23;20159;-83
2023/06/10 00:09:37;;;;;;;7.18;6.57;;;;;;;18.74;49.66;95293.78;6156987;23;20155;-80
2023/06/10 00:12:12;;;;;;;8.05;6.93;;;;;;;18.71;49.98;95287.09;6107025;23;20163;-83
2023/06/10 00:14:39;;;;;;;9.77;7.10;;;;;;;18.76;49.53;95282.03;6131700;23;20187;-82
2023/06/10 00:17:05;;;;;;;7.43;6.72;;;;;;;18.72;49.38;95286.09;6131756;23;20651;-82
2023/06/10 00:19:30;;;;;;;7.88;7.07;;;;;;;18.63;50.01;95282.00;6156190;23;20155;-83
2023/06/10 00:21:56;;;;;;;8.10;7.40;;;;;;;18.64;50.11;95288.88;6133104;23;20170;-83
2023/06/10 00:24:21;;;;;;;7.88;7.07;;;;;;;18.59;49.93;95286.88;6134599;23;20175;-82
2023/06/10 00:26:47;;;;;;;8.23;7.50;;;;;;;18.63;50.37;95284.66;6131627;23;20762;-82
2023/06/10 00:29:13;;;;;;;7.88;7.18;;;;;;;18.60;50.71;95287.69;6131543;23;20151;-81
2023/06/10 00:31:38;;;;;;;7.32;6.63;;;;;;;18.63;50.65;95287.28;6131068;23;20159;-81
2023/06/10 00:34:04;;;;;;;7.78;6.97;;;;;;;18.63;50.68;95279.38;6129153;23;20246;-80
2023/06/10 00:36:30;;;;;;;7.80;6.68;;;;;;;18.63;50.61;95279.38;6128711;23;20163;-80
2023/06/10 00:38:55;;;;;;;7.25;6.53;;;;;;;18.67;50.58;95291.97;6152759;23;20151;-80
2023/06/10 00:41:20;;;;;;;9.15;7.15;;;;;;;18.63;50.73;95293.34;6128750;23;20163;-80
2023/06/10 00:43:46;;;;;;;8.10;7.28;;;;;;;18.58;51.00;95289.72;6128260;23;20186;-80
2023/06/10 00:46:12;;;;;;;7.40;6.72;;;;;;;18.55;51.26;95290.09;6152470;23;20151;-81
2023/06/10 00:48:38;;;;;;;7.55;6.68;;;;;;;18.60;51.51;95285.88;6103394;23;20163;-80
2023/06/10 00:51:04;;;;;;;12.95;7.35;;;;;;;18.46;51.86;95286.06;6152792;23;20155;-81
2023/06/10 00:53:30;;;;;;;7.72;6.93;;;;;;;18.51;51.34;95284.47;6153007;23;20171;-81
2023/06/10 00:55:55;;;;;;;7.63;6.93;;;;;;;18.46;52.09;95286.06;6127795;23;20159;-80
2023/06/10 00:58:21;;;;;;;8.63;6.68;;;;;;;18.50;51.78;95289.94;6102316;23;20214;-79
2023/06/10 01:00:55;;;;;;;8.70;7.10;;;;;;;18.50;52.02;95288.09;6129198;23;20721;-81
2023/06/10 01:03:20;;;;;;;7.35;6.65;;;;;;;18.41;52.02;95289.31;6128086;23;20185;-81
2023/06/10 01:05:52;;;;;;;8.15;7.00;;;;;;;18.45;51.91;95287.88;6127663;23;20163;-80
2023/06/10 01:08:25;;;;;;;6.97;6.38;;;;;;;18.33;53.02;95285.06;6153001;23;20139;-79
2023/06/10 01:10:53;;;;;;;7.50;6.75;;;;;;;18.34;52.42;95289.31;6154385;23;20143;-80
2023/06/10 01:13:23;;;;;;;9.43;7.03;;;;;;;18.32;52.46;95291.34;6129411;23;20178;-80
2023/06/10 01:15:49;;;;;;;8.85;8.05;;;;;;;18.24;52.87;95288.91;6154574;23;20228;-80
2023/06/10 01:18:17;;;;;;;8.00;7.20;;;;;;;18.21;52.56;95283.25;6130006;23;20645;-80
2023/06/10 01:20:43;;;;;;;7.95;7.15;;;;;;;18.11;52.88;95284.47;6154441;23;20151;-80
2023/06/10 01:23:10;;;;;;;7.97;7.13;;;;;;;18.05;53.57;95280.00;6130254;23;20175;-81
2023/06/10 01:25:48;;;;;;;8.50;7.25;;;;;;;18.04;53.46;95288.09;6154374;23;20234;-79
2023/06/10 01:28:29;;;;;;;7.65;6.95;;;;;;;17.97;53.48;95282.81;6154550;23;20187;-80
2023/06/10 01:31:09;;;;;;;7.82;7.10;;;;;;;17.93;53.84;95286.03;6130286;23;20139;-80
2023/06/10 01:33:36;;;;;;;8.48;7.60;;;;;;;17.84;54.57;95288.03;6154653;23;20249;-79
2023/06/10 01:36:02;;;;;;;9.45;7.03;;;;;;;17.81;54.63;95277.91;6129420;23;20159;-82
2023/06/10 01:38:30;;;;;;;8.15;7.35;;;;;;;17.78;54.79;95284.38;6105761;23;20663;-80
2023/06/10 01:40:56;;;;;;;8.07;7.28;;;;;;;17.74;54.72;95288.41;6154489;23;20158;-80
2023/06/10 01:43:22;;;;;;;8.57;7.78;;;;;;;17.69;55.02;95290.78;6129714;23;20183;-81
2023/06/10 01:45:47;;;;;;;8.10;7.45;;;;;;;17.66;55.08;95285.13;6129773;23;20167;-79
2023/06/10 01:48:12;;;;;;;7.20;6.47;;;;;;;17.60;55.09;95291.19;6129678;23;20605;-80
2023/06/10 01:50:38;;;;;;;7.72;7.03;;;;;;;17.59;55.40;95292.19;6129880;23;20194;-81
2023/06/10 01:53:05;;;;;;;7.50;6.80;;;;;;;17.50;56.25;95291.53;6154266;23;20571;-80
2023/06/10 01:55:30;;;;;;;8.45;7.55;;;;;;;17.41;56.60;95288.28;6155804;23;20183;-79
2023/06/10 01:57:55;;;;;;;8.40;7.57;;;;;;;17.42;56.56;95286.47;6118223;23;20188;-82
2023/06/10 02:00:21;;;;;;;8.00;7.30;;;;;;;17.38;57.00;95283.41;6147668;23;20219;-81
2023/06/10 02:02:46;;;;;;;7.70;7.00;;;;;;;17.38;57.03;95293.91;6137044;23;20271;-82
2023/06/10 02:05:11;;;;;;;7.88;7.03;;;;;;;17.31;57.26;95293.06;6158633;23;20578;-82
2023/06/10 02:07:37;;;;;;;8.98;6.88;;;;;;;17.24;57.54;95303.53;6116043;23;20147;-80
2023/06/10 02:10:04;;;;;;;8.85;8.00;;;;;;;17.17;58.34;95292.19;6158982;23;20227;-79
2023/06/10 02:12:29;;;;;;;8.63;7.80;;;;;;;17.12;58.55;95299.03;6158377;23;20182;-79
2023/06/10 02:14:54;;;;;;;7.70;7.00;;;;;;;17.04;58.91;95292.13;6118586;23;20187;-80
2023/06/10 02:17:20;;;;;;;8.20;6.82;;;;;;;16.98;58.98;95290.28;6158400;23;20382;-82
2023/06/10 02:19:52;;;;;;;6.90;6.30;;;;;;;16.95;59.10;95294.09;6134534;23;20163;-81
2023/06/10 02:22:21;;;;;;;8.13;7.15;;;;;;;16.89;59.32;95291.44;6133467;23;20144;-81
2023/06/10 02:24:46;;;;;;;7.85;7.07;;;;;;;16.87;59.95;95293.44;6157731;23;20230;-82
2023/06/10 02:27:12;;;;;;;8.75;7.15;;;;;;;16.83;59.68;95295.63;6132157;23;20171;-81
2023/06/10 02:29:37;;;;;;;7.80;7.00;;;;;;;16.78;59.83;95294.59;6107712;23;20159;-79
2023/06/10 02:32:03;;;;;;;7.18;6.57;;;;;;;16.80;59.79;95300.47;6131901;23;20178;-80
2023/06/10 02:34:28;;;;;;;8.10;7.32;;;;;;;16.76;60.14;95299.22;6156531;23;20183;-81
2023/06/10 02:36:53;;;;;;;8.27;7.57;;;;;;;16.74;60.61;95307.28;6131071;23;20242;-80
2023/06/10 02:39:19;;;;;;;8.55;7.75;;;;;;;16.62;61.48;95300.91;6132126;23;20162;-80
2023/06/10 02:41:44;;;;;;;8.27;7.47;;;;;;;16.67;61.03;95304.56;6156951;23;20203;-81
2023/06/10 02:44:09;;;;;;;7.85;7.13;;;;;;;16.63;61.74;95308.59;6131497;23;20503;-80
2023/06/10 02:46:35;;;;;;;7.85;6.90;;;;;;;16.67;60.93;95306.38;6131247;23;20605;-81
2023/06/10 02:49:01;;;;;;;7.85;6.55;;;;;;;16.62;61.06;95306.97;6131920;23;20214;-80
2023/06/10 02:51:27;;;;;;;7.65;6.95;;;;;;;16.63;60.53;95311.22;6131342;23;20514;-80
2023/06/10 02:53:52;;;;;;;7.13;6.50;;;;;;;16.67;60.51;95301.13;6156575;23;20191;-80
2023/06/10 02:56:18;;;;;;;6.97;6.30;;;;;;;16.77;60.07;95295.59;6131048;23;20152;-81
2023/06/10 02:58:44;;;;;;;6.53;5.93;;;;;;;16.85;59.87;95309.38;6130184;23;20170;-82
2023/06/10 03:01:10;;;;;;;7.00;6.30;;;;;;;16.87;59.40;95306.53;6131571;23;20501;-82
2023/06/10 03:03:36;;;;;;;6.45;5.85;;;;;;;16.86;59.31;95307.53;6131421;23;20648;-81
2023/06/10 03:06:02;;;;;;;6.35;5.78;;;;;;;16.85;59.06;95316.41;6155128;23;20159;-81
2023/06/10 03:08:27;;;;;;;6.95;6.25;;;;;;;16.79;59.41;95311.97;6131205;23;20183;-81
2023/06/10 03:10:53;;;;;;;6.47;5.85;;;;;;;16.79;59.61;95318.03;6130867;23;20155;-79
2023/06/10 03:13:18;;;;;;;6.60;5.90;;;;;;;16.85;59.44;95322.47;6130866;23;20183;-80
2023/06/10 03:15:45;;;;;;;6.55;5.80;;;;;;;16.86;59.23;95315.41;6130927;23;20178;-80
2023/06/10 03:18:11;;;;;;;6.40;5.80;;;;;;;16.82;59.52;95315.00;6106122;23;20166;-81
2023/06/10 03:20:37;;;;;;;7.80;6.40;;;;;;;16.79;59.48;95314.59;6130523;23;20167;-80
2023/06/10 03:23:03;;;;;;;7.35;6.15;;;;;;;16.69;59.64;95322.75;6130639;23;20194;-81
2023/06/10 03:25:30;;;;;;;6.60;6.00;;;;;;;16.61;60.37;95323.72;6105514;23;20489;-81
2023/06/10 03:27:55;;;;;;;7.13;6.43;;;;;;;16.62;60.38;95327.94;6129800;23;20175;-80
2023/06/10 03:30:21;;;;;;;6.65;6.05;;;;;;;16.60;60.44;95332.53;6130616;23;20246;-82
2023/06/10 03:32:46;;;;;;;6.93;6.22;;;;;;;16.61;60.33;95326.31;6106339;23;20537;-82
2023/06/10 03:35:12;;;;;;;6.97;6.32;;;;;;;16.65;60.25;95324.94;6155153;23;20229;-82
2023/06/10 03:37:37;;;;;;;6.50;5.63;;;;;;;16.74;59.98;95327.44;6155233;23;20155;-82
2023/06/10 03:40:03;;;;;;;6.60;5.93;;;;;;;16.75;59.73;95326.44;6154887;23;20294;-80
2023/06/10 03:42:28;;;;;;;6.63;6.03;;;;;;;16.82;59.53;95330.72;6155237;23;20155;-80
2023/06/10 03:44:54;;;;;;;7.18;5.22;;;;;;;17.11;58.90;95328.88;6130071;23;20675;-81
2023/06/10 03:47:20;;;;;;;6.20;5.60;;;;;;;17.42;57.50;95336.34;6154836;23;20610;-81
2023/06/10 03:49:45;;;;;;;5.10;4.68;;;;;;;18.08;55.96;95332.13;6155633;23;20162;-82
2023/06/10 03:52:10;;;;;;;5.60;5.10;;;;;;;19.23;52.20;95336.19;6130606;23;20159;-81
2023/06/10 03:54:36;;;;;;;6.40;5.43;;;;;;;20.54;48.71;95343.75;6131292;23;20191;-81
2023/06/10 03:57:02;;;;;;;5.63;5.13;;;;;;;21.47;45.46;95338.47;6128116;23;20163;-82
2023/06/10 03:59:28;;;;;;;5.57;5.07;;;;;;;22.05;43.85;95339.78;6131124;23;20233;-83
2023/06/10 04:01:56;;;;;;;5.60;5.10;;;;;;;23.47;39.88;95345.09;6130245;23;20235;-81
2023/06/10 04:04:23;;;;;;;5.07;4.68;;;;;;;23.91;39.10;95353.44;6132017;23;20622;-81
2023/06/10 04:06:49;;;;;;;5.30;4.80;;;;;;;24.40;38.19;95359.16;6130205;23;20189;-81
2023/06/10 04:09:15;;;;;;;5.90;5.10;;;;;;;24.22;38.30;95354.84;6130986;23;20158;-82
2023/06/10 04:11:40;;;;;;;5.18;4.68;;;;;;;25.34;36.17;95357.50;6156136;23;20166;-83
2023/06/10 04:14:06;;;;;;;5.45;4.95;;;;;;;25.39;35.61;95356.78;6154786;23;20190;-81
2023/06/10 04:16:31;;;;;;;5.03;4.63;;;;;;;26.58;34.24;95353.41;6130529;23;20503;-83
2023/06/10 04:18:56;;;;;;;5.15;4.63;;;;;;;25.95;34.91;95354.84;6131525;23;20294;-83
2023/06/10 04:21:22;;;;;;;5.47;4.80;;;;;;;25.33;35.99;95358.56;6106113;23;20167;-82
2023/06/10 04:23:48;;;;;;;5.40;4.90;;;;;;;25.96;34.54;95351.94;6130293;23;20432;-82
2023/06/10 04:26:14;;;;;;;5.38;4.95;;;;;;;27.40;31.84;95356.75;6135899;23;20250;-81
2023/06/10 04:28:39;;;;;;;5.28;4.88;;;;;;;27.19;33.26;95356.59;6165528;23;20170;-81
2023/06/10 04:31:04;;;;;;;6.72;5.25;;;;;;;28.68;30.15;95362.31;6142199;23;20163;-82
2023/06/10 04:33:30;;;;;;;5.03;4.63;;;;;;;28.41;30.51;95367.88;6142283;23;20171;-81
2023/06/10 04:35:56;;;;;;;5.50;4.63;;;;;;;28.25;30.59;95362.75;6142111;23;20281;-83
2023/06/10 04:38:21;;;;;;;5.22;4.82;;;;;;;28.12;30.77;95364.84;6143255;23;20155;-80
2023/06/10 04:40:49;;;;;;;6.00;4.90;;;;;;;29.42;29.41;95370.88;6167355;23;20171;-82
2023/06/10 04:43:15;;;;;;;5.75;5.15;;;;;;;27.81;31.42;95371.13;6141028;23;20569;-82
2023/06/10 04:45:44;;;;;;;5.78;5.13;;;;;;;28.16;31.48;95365.91;6166554;23;20173;-80
2023/06/10 04:48:10;;;;;;;4.97;4.53;;;;;;;29.51;29.15;95367.44;6142181;23;20219;-84
2023/06/10 04:50:36;;;;;;;4.70;4.40;;;;;;;30.47;28.27;95360.06;6166079;23;20151;-83
2023/06/10 04:53:04;;;;;;;5.93;4.80;;;;;;;29.65;28.77;95366.84;6163353;23;20179;-83
2023/06/10 04:55:30;;;;;;;4.88;4.53;;;;;;;29.41;28.51;95363.91;6135607;23;20243;-84
2023/06/10 04:57:55;;;;;;;5.30;4.90;;;;;;;30.00;28.47;95357.88;6134320;23;20181;-84
2023/06/10 05:00:21;;;;;;;5.30;4.93;;;;;;;29.92;28.54;95351.22;6136687;23;20503;-83
2023/06/10 05:02:49;;;;;;;5.30;4.53;;;;;;;29.93;28.80;95358.19;6159710;23;20156;-84
2023/06/10 05:05:18;;;;;;;4.93;4.57;;;;;;;31.01;27.12;95362.69;6159250;23;20148;-82
2023/06/10 05:07:43;;;;;;;4.82;4.50;;;;;;;31.61;26.37;95367.78;6158734;23;20152;-81
2023/06/10 05:10:09;;;;;;;4.72;4.43;;;;;;;30.73;28.00;95366.09;6110354;23;20194;-84
2023/06/10 05:12:34;;;;;;;5.07;4.57;;;;;;;31.05;27.45;95376.31;6133479;23;20163;-84
2023/06/10 05:15:00;;;;;;;5.13;4.72;;;;;;;32.80;24.96;95374.13;6159883;23;20185;-84
2023/06/10 05:17:25;;;;;;;5.07;4.68;;;;;;;31.71;26.23;95361.50;6132908;23;20586;-83
2023/06/10 05:19:50;;;;;;;5.05;4.65;;;;;;;32.69;24.40;95373.47;6158625;23;20155;-84
2023/06/10 05:22:17;;;;;;;5.15;4.75;;;;;;;32.79;24.73;95370.63;6109607;23;20170;-84
2023/06/10 05:24:43;;;;;;;5.43;4.88;;;;;;;32.94;24.95;95378.47;6109401;23;20302;-83
2023/06/10 05:27:09;;;;;;;8.18;5.00;;;;;;;33.27;24.85;95386.56;6132531;23;20668;-84
2023/06/10 05:29:34;;;;;;;4.80;4.43;;;;;;;32.86;24.51;95381.81;6108596;23;20609;-83
2023/06/10 05:32:02;;;;;;;5.30;4.47;;;;;;;34.73;22.58;95392.13;6133207;23;20170;-83
2023/06/10 05:34:28;;;;;;;4.90;4.50;;;;;;;33.75;23.59;95391.69;6133032;23;20536;-84
2023/06/10 05:36:53;;;;;;;5.28;4.78;;;;;;;33.56;24.62;95389.03;6131927;23;20258;-83
2023/06/10 05:39:19;;;;;;;5.07;4.55;;;;;;;32.82;25.54;95388.88;6133465;23;20162;-84
2023/06/10 05:41:46;;;;;;;4.82;4.53;;;;;;;33.94;24.21;95400.50;6134867;23;20271;-84
2023/06/10 05:44:11;;;;;;;4.95;4.55;;;;;;;34.84;22.62;95390.00;6109661;23;20433;-83
2023/06/10 05:46:37;;;;;;;5.38;4.88;;;;;;;33.93;23.80;95398.09;6132719;23;20151;-84
2023/06/10 05:49:02;;;;;;;5.15;4.65;;;;;;;33.55;23.84;95402.81;6109431;23;20625;-82
2023/06/10 05:51:28;;;;;;;4.65;4.20;;;;;;;34.08;23.30;95400.47;6133142;23;20155;-84
2023/06/10 05:53:54;;;;;;;4.75;4.35;;;;;;;33.13;24.70;95400.00;6158708;23;20576;-82
2023/06/10 05:56:20;;;;;;;4.93;4.53;;;;;;;34.11;23.16;95405.28;6158474;23;20158;-83
2023/06/10 05:58:45;;;;;;;5.35;4.80;;;;;;;34.32;23.17;95406.44;6135022;23;20206;-84
2023/06/10 06:01:11;;;;;;;4.50;4.20;;;;;;;35.52;22.21;95399.72;6136369;23;20163;-84
2023/06/10 06:03:36;;;;;;;5.30;4.90;;;;;;;35.12;22.29;95407.69;6138083;23;20525;-80
2023/06/10 06:06:02;;;;;;;5.22;4.72;;;;;;;34.50;23.41;95406.66;6134786;23;20609;-84
2023/06/10 06:08:27;;;;;;;5.20;4.80;;;;;;;35.08;22.44;95411.31;6136313;23;20170;-84
2023/06/10 06:10:52;;;;;;;5.13;4.63;;;;;;;33.86;24.19;95405.75;6160329;23;20163;-84
2023/06/10 06:13:18;;;;;;;5.78;4.93;;;;;;;35.23;22.78;95412.84;6135155;23;20181;-84
2023/06/10 06:15:43;;;;;;;5.15;4.75;;;;;;;33.47;25.03;95413.16;6135198;23;20187;-84
2023/06/10 06:18:08;;;;;;;6.82;5.53;;;;;;;32.97;25.53;95414.75;6158172;23;20548;-82
2023/06/10 06:20:34;;;;;;;5.72;5.22;;;;;;;31.74;26.40;95417.31;6135697;23;20163;-84
2023/06/10 06:22:59;;;;;;;5.40;4.90;;;;;;;34.18;24.25;95418.34;6135531;23;20202;-84
2023/06/10 06:25:24;;;;;;;5.40;4.95;;;;;;;32.89;25.53;95412.72;6159555;23;20490;-82
2023/06/10 06:27:50;;;;;;;5.70;5.20;;;;;;;33.94;24.38;95416.66;6109174;23;20520;-83
2023/06/10 06:30:15;;;;;;;5.35;4.95;;;;;;;33.35;25.71;95415.50;6134637;23;20162;-83
2023/06/10 06:32:40;;;;;;;4.97;4.57;;;;;;;34.55;23.93;95426.22;6134761;23;20497;-82
2023/06/10 06:35:07;;;;;;;5.63;5.22;;;;;;;34.02;24.36;95429.44;6159229;23;20187;-83
2023/06/10 06:37:33;;;;;;;5.28;4.78;;;;;;;32.99;26.01;95426.03;6134247;23;20187;-83
2023/06/10 06:39:58;;;;;;;4.97;4.63;;;;;;;35.43;22.67;95423.97;6159550;23;20156;-84
2023/06/10 06:42:24;;;;;;;6.10;5.28;;;;;;;34.09;24.33;95429.81;6135006;23;20163;-82
2023/06/10 06:44:49;;;;;;;5.32;4.93;;;;;;;33.21;25.45;95428.09;6110254;23;20202;-84
2023/06/10 06:47:14;;;;;;;5.40;5.00;;;;;;;33.65;25.56;95434.91;6159652;23;20598;-82
2023/06/10 06:49:39;;;;;;;6.00;5.60;;;;;;;33.08;25.05;95426.97;6136165;23;20166;-84
2023/06/10 06:52:05;;;;;;;5.60;5.20;;;;;;;33.11;25.42;95431.75;6146804;23;20147;-80
2023/06/10 06:54:31;;;;;;;5.60;5.15;;;;;;;33.14;25.89;95428.47;6157978;23;20205;-79
2023/06/10 06:56:56;;;;;;;5.57;5.18;;;;;;;33.42;25.45;95431.28;6130549;23;20175;-81
2023/06/10 06:59:22;;;;;;;6.25;5.40;;;;;;;32.90;25.59;95430.47;6156836;23;20238;-82
2023/06/10 07:01:47;;;;;;;5.60;5.10;;;;;;;32.91;26.15;95426.69;6133200;23;20155;-82
2023/06/10 07:04:14;;;;;;;6.80;6.00;;;;;;;32.17;26.90;95434.31;6132180;23;20182;-83
2023/06/10 07:06:40;;;;;;;5.80;5.30;;;;;;;32.27;26.67;95426.16;6157820;23;20246;-82
2023/06/10 07:09:06;;;;;;;5.53;5.03;;;;;;;31.49;28.35;95427.22;6132737;23;20225;-82
2023/06/10 07:11:31;;;;;;;5.75;5.25;;;;;;;32.60;26.48;95431.66;6133148;23;20206;-81
2023/06/10 07:13:57;;;;;;;6.35;5.75;;;;;;;33.05;26.02;95432.94;6132586;23;20179;-83
2023/06/10 07:16:22;;;;;;;6.65;6.05;;;;;;;32.96;25.50;95427.41;6131938;23;20167;-83
2023/06/10 07:18:48;;;;;;;5.20;4.80;;;;;;;33.05;26.59;95426.75;6133571;23;20159;-82
2023/06/10 07:21:13;;;;;;;8.45;5.72;;;;;;;32.11;27.85;95430.88;6132689;23;20167;-83
2023/06/10 07:23:42;;;;;;;6.18;5.53;;;;;;;31.66;27.65;95423.31;6133497;23;20179;-83
2023/06/10 07:26:07;;;;;;;5.85;5.35;;;;;;;32.20;27.40;95425.69;6132986;23;20560;-83
2023/06/10 07:28:32;;;;;;;5.63;5.07;;;;;;;32.79;27.28;95427.09;6159410;23;20206;-83
2023/06/10 07:30:58;;;;;;;7.65;5.57;;;;;;;32.61;26.86;95425.22;6134515;23;20166;-82
2023/06/10 07:33:23;;;;;;;5.45;4.90;;;;;;;33.01;26.53;95436.47;6158713;23;20183;-82
2023/06/10 07:35:48;;;;;;;5.32;4.82;;;;;;;32.88;26.76;95430.75;6158110;23;20187;-82
2023/06/10 07:38:14;;;;;;;5.05;4.55;;;;;;;31.73;27.64;95429.94;6134540;23;20163;-82
2023/06/10 07:40:39;;;;;;;6.57;5.10;;;;;;;31.60;27.78;95429.78;6133545;23;20163;-82
2023/06/10 07:43:04;;;;;;;5.63;5.13;;;;;;;30.77;29.32;95428.00;6159926;23;20171;-82
2023/06/10 07:45:30;;;;;;;5.90;4.70;;;;;;;31.29;28.75;95428.19;6135250;23;20156;-83
2023/06/10 07:47:55;;;;;;;6.65;5.22;;;;;;;30.45;30.00;95421.97;6158560;23;20158;-82
2023/06/10 07:50:20;;;;;;;5.38;4.93;;;;;;;31.11;29.47;95422.69;6159757;23;20151;-81
2023/06/10 07:52:46;;;;;;;5.18;4.68;;;;;;;30.97;29.62;95420.63;6132592;23;20601;-84
2023/06/10 07:55:11;;;;;;;5.10;4.70;;;;;;;30.78;29.59;95427.72;6111110;23;20175;-84
2023/06/10 07:57:38;;;;;;;5.00;4.60;;;;;;;30.41;29.96;95430.84;6156250;23;20163;-83
2023/06/10 08:00:04;;;;;;;4.43;4.00;;;;;;;30.68;28.52;95425.91;6161427;23;20159;-82
2023/06/10 08:02:30;;;;;;;4.70;4.30;;;;;;;29.73;30.14;95425.97;6162223;23;20163;-83
2023/06/10 08:04:55;;;;;;;4.75;4.32;;;;;;;29.49;31.34;95433.75;6158584;23;20641;-81
2023/06/10 08:07:21;;;;;;;5.22;4.72;;;;;;;29.61;30.84;95428.94;6158891;23;20152;-81
2023/06/10 08:09:47;;;;;;;4.88;4.47;;;;;;;30.38;29.71;95426.81;6160218;23;20499;-83
2023/06/10 08:12:12;;;;;;;5.28;4.78;;;;;;;29.31;31.05;95424.38;6134288;23;20167;-82
2023/06/10 08:14:38;;;;;;;7.25;4.43;;;;;;;29.32;31.55;95427.84;6162438;23;20642;-84
2023/06/10 08:17:05;;;;;;;5.72;5.13;;;;;;;28.28;32.46;95423.66;6159790;23;20167;-83
2023/06/10 08:19:30;;;;;;;6.55;5.65;;;;;;;27.84;33.29;95427.44;6161684;23;20625;-84
2023/06/10 08:21:56;;;;;;;5.75;5.32;;;;;;;27.81;33.33;95417.28;6158702;23;20218;-84
2023/06/10 08:24:21;;;;;;;5.88;5.47;;;;;;;26.98;34.88;95416.13;6133697;23;20190;-84
2023/06/10 08:26:46;;;;;;;7.00;6.22;;;;;;;26.14;36.60;95419.19;6157559;23;20209;-83
2023/06/10 08:29:12;;;;;;;6.88;6.20;;;;;;;26.99;36.26;95415.84;6133483;23;20187;-82
2023/06/10 08:31:41;;;;;;;8.27;7.40;;;;;;;26.80;35.58;95412.75;6158405;23;20489;-82
2023/06/10 08:34:06;;;;;;;7.93;7.13;;;;;;;26.50;36.09;95412.44;6158351;23;20183;-84
2023/06/10 08:36:31;;;;;;;8.13;7.35;;;;;;;26.63;37.22;95425.38;6108764;23;20197;-82
2023/06/10 08:38:57;;;;;;;8.30;7.60;;;;;;;26.12;36.66;95411.47;6136245;23;20152;-83
2023/06/10 08:41:26;;;;;;;8.70;7.90;;;;;;;25.59;37.98;95423.50;6158857;23;20344;-82
2023/06/10 08:44:44;;;;;;;8.02;7.43;;;;;;;25.49;38.68;95411.94;6137133;23;20241;-83
2023/06/10 08:47:15;;;;;;;7.93;7.25;;;;;;;25.04;39.18;95423.47;6069730;23;20165;-84
2023/06/10 08:49:44;;;;;;;8.15;7.35;;;;;;;25.11;39.48;95438.22;6046726;23;20157;-80
2023/06/10 08:52:14;;;;;;;7.68;6.97;;;;;;;24.97;39.67;95420.13;6079800;23;20550;-84
2023/06/10 08:54:43;;;;;;;7.63;6.93;;;;;;;24.49;41.26;95424.09;6047810;23;20185;-83
2023/06/10 08:57:09;;;;;;;7.97;6.78;;;;;;;25.45;40.27;95427.59;6045767;23;20169;-80
2023/06/10 08:59:34;;;;;;;7.28;6.63;;;;;;;25.51;39.18;95421.28;6072662;23;20513;-79
2023/06/10 09:02:00;;;;;;;7.07;6.38;;;;;;;25.56;38.97;95424.00;6026016;23;20172;-81
2023/06/10 09:04:26;;;;;;;6.55;6.05;;;;;;;25.96;39.39;95421.13;6075807;23;20173;-82
2023/06/10 09:06:52;;;;;;;6.55;5.95;;;;;;;26.17;38.29;95424.84;6068042;23;20169;-82
2023/06/10 09:09:20;;;;;;;6.90;6.30;;;;;;;26.09;37.94;95419.97;6048716;23;20247;-83
2023/06/10 09:11:45;;;;;;;6.07;5.47;;;;;;;26.71;37.71;95411.59;6047901;23;20161;-83
2023/06/10 09:14:12;;;;;;;6.10;5.57;;;;;;;26.62;36.64;95417.66;6045018;23;20208;-80
2023/06/10 09:16:38;;;;;;;5.35;4.93;;;;;;;27.14;37.24;95422.41;6069499;23;20161;-83
2023/06/10 09:19:07;;;;;;;6.43;5.90;;;;;;;26.36;38.14;95416.53;6053133;23;20309;-82
2023/06/10 09:21:33;;;;;;;5.80;5.30;;;;;;;25.61;38.00;95410.78;6049785;23;20172;-84
2023/06/10 09:23:58;;;;;;;6.10;5.13;;;;;;;25.79;38.88;95412.38;6158023;23;20613;-82
2023/06/10 09:26:28;;;;;;;4.93;4.47;;;;;;;26.00;36.94;95417.97;6134313;23;20160;-83
2023/06/10 09:29:01;;;;;;;5.10;4.70;;;;;;;25.99;36.98;95417.19;6134001;23;20171;-81
2023/06/10 09:31:27;;;;;;;5.75;4.85;;;;;;;25.72;37.23;95432.25;6109693;23;20165;-82
2023/06/10 09:33:52;;;;;;;5.63;5.22;;;;;;;25.40;38.10;95415.00;6159760;23;20206;-83
2023/06/10 09:36:22;;;;;;;5.72;5.10;;;;;;;25.52;38.84;95412.25;6135202;23;20170;-82
2023/06/10 09:38:49;;;;;;;5.80;5.30;;;;;;;26.15;37.90;95416.31;6134561;23;20241;-82
2023/06/10 09:41:15;;;;;;;5.82;5.25;;;;;;;26.20;37.55;95416.34;6136122;23;20179;-83
2023/06/10 09:43:42;;;;;;;6.00;5.45;;;;;;;26.71;37.36;95413.47;6136210;23;20618;-83
2023/06/10 09:46:15;;;;;;;5.60;5.10;;;;;;;26.55;37.38;95412.50;6134761;23;20218;-84
2023/06/10 09:48:42;;;;;;;5.72;5.22;;;;;;;26.38;37.70;95409.13;6136081;23;20155;-83
2023/06/10 09:51:12;;;;;;;6.03;5.53;;;;;;;26.98;37.56;95408.91;6137159;23;20159;-83
2023/06/10 09:53:38;;;;;;;7.03;6.15;;;;;;;26.34;37.43;95408.00;6111869;23;20183;-82
2023/06/10 09:56:03;;;;;;;6.35;5.70;;;;;;;26.66;37.99;95406.22;6136687;23;20546;-82
2023/06/10 09:58:39;;;;;;;7.75;5.55;;;;;;;27.27;37.36;95405.97;6135009;23;20686;-82
2023/06/10 10:01:11;;;;;;;6.32;5.60;;;;;;;26.75;37.20;95410.03;6137482;23;20159;-81
2023/06/10 10:03:47;;;;;;;6.43;5.50;;;;;;;27.22;36.56;95411.28;6136491;23;20206;-82
2023/06/10 10:06:14;;;;;;;6.50;5.47;;;;;;;26.73;35.93;95400.69;6134992;23;20171;-82
2023/06/10 10:08:40;;;;;;;5.80;5.30;;;;;;;26.82;36.89;95413.31;6158268;23;20183;-83
2023/06/10 10:11:05;;;;;;;6.22;5.72;;;;;;;26.42;38.13;95412.91;6158702;23;20178;-82
2023/06/10 10:13:34;;;;;;;6.38;5.75;;;;;;;26.31;37.08;95406.63;6133772;23;20179;-81
2023/06/10 10:16:04;;;;;;;5.82;5.22;;;;;;;25.96;38.19;95409.66;6132582;23;20183;-82
2023/06/10 10:18:30;;;;;;;5.60;5.20;;;;;;;26.02;37.49;95405.22;6162173;23;20175;-82
2023/06/10 10:20:57;;;;;;;6.13;5.55;;;;;;;25.85;37.99;95411.41;6134253;23;20160;-82
2023/06/10 10:23:32;;;;;;;5.70;5.30;;;;;;;27.00;37.46;95406.81;6134726;23;20257;-82
2023/06/10 10:26:00;;;;;;;6.10;5.55;;;;;;;27.24;35.78;95407.28;6133851;23;20222;-81
2023/06/10 10:28:32;;;;;;;6.30;5.40;;;;;;;26.63;37.29;95408.59;6134655;23;20217;-82
2023/06/10 10:31:00;;;;;;;6.57;5.97;;;;;;;26.41;38.57;95411.28;6134530;23;20153;-82
2023/06/10 10:33:31;;;;;;;6.18;5.68;;;;;;;26.77;38.82;95415.94;6110895;23;20266;-83
2023/06/10 10:35:57;;;;;;;7.25;5.90;;;;;;;27.35;37.07;95419.63;6133703;23;20641;-83
2023/06/10 10:38:23;;;;;;;6.15;5.65;;;;;;;27.76;36.44;95408.47;6134546;23;20155;-83
2023/06/10 10:40:49;;;;;;;7.00;6.30;;;;;;;28.09;36.64;95402.72;6135943;23;20237;-81
2023/06/10 10:43:15;;;;;;;5.57;4.97;;;;;;;28.36;35.35;95407.13;6136565;23;20653;-81
2023/06/10 10:45:41;;;;;;;6.03;5.53;;;;;;;28.35;36.38;95403.66;6136507;23;20152;-82
2023/06/10 10:48:11;;;;;;;6.50;5.90;;;;;;;28.35;35.23;95411.66;6110867;23;20163;-83
2023/06/10 10:50:37;;;;;;;6.18;5.63;;;;;;;28.01;35.31;95402.44;6112466;23;20148;-82
2023/06/10 10:53:04;;;;;;;5.97;5.57;;;;;;;28.74;34.48;95404.00;6136661;23;20269;-83
2023/06/10 10:55:29;;;;;;;5.85;5.32;;;;;;;28.68;35.54;95404.25;6136395;23;20185;-81
2023/06/10 10:57:59;;;;;;;5.07;4.57;;;;;;;28.94;32.80;95411.28;6133652;23;20190;-81
2023/06/10 11:00:31;;;;;;;5.40;5.00;;;;;;;28.93;33.67;95398.19;6134589;23;20155;-82
2023/06/10 11:03:18;;;;;;;5.88;5.43;;;;;;;29.20;33.32;95404.06;6133737;23;20186;-82
2023/06/10 11:05:49;;;;;;;6.07;5.57;;;;;;;29.26;32.24;95400.31;6133840;23;20159;-82
2023/06/10 11:08:15;;;;;;;6.15;5.28;;;;;;;28.12;34.40;95401.41;6135275;23;20148;-82
2023/06/10 11:10:51;;;;;;;6.15;5.55;;;;;;;27.82;33.60;95397.53;6163172;23;20638;-81
2023/06/10 11:13:19;;;;;;;6.32;5.72;;;;;;;27.31;34.52;95389.22;6139943;23;20266;-82
2023/06/10 11:15:46;;;;;;;5.50;5.07;;;;;;;27.13;35.44;95399.47;6115750;23;20190;-82
2023/06/10 11:18:12;;;;;;;5.57;5.18;;;;;;;26.98;34.45;95387.59;6161165;23;20501;-82
2023/06/10 11:20:49;;;;;;;5.15;4.65;;;;;;;27.08;33.57;95378.91;6164372;23;20170;-80
2023/06/10 11:23:27;;;;;;;5.13;4.63;;;;;;;27.78;32.98;95393.78;6166824;23;20234;-83
2023/06/10 11:26:21;;;;;;;5.30;4.80;;;;;;;28.18;33.23;95398.50;6166605;23;20213;-84
2023/06/10 11:28:47;;;;;;;5.45;4.95;;;;;;;28.72;31.61;95395.47;6165082;23;20171;-84
2023/06/10 11:31:26;;;;;;;5.75;5.25;;;;;;;29.22;30.91;95391.22;6164096;23;20152;-84
2023/06/10 11:33:56;;;;;;;5.82;5.43;;;;;;;28.78;33.91;95399.72;6138803;23;20282;-84